sensor_id;sensor_type;location;lat;lon;timestamp;P1;durP1;ratioP1;P2;durP2;ratioP2
8279;SDS011;8335;42.646;23.380;2022-12-18T00:01:56;7.33;;;5.43;;
8279;SDS011;8335;42.646;23.380;2022-12-18T00:04:23;7.97;;;4.93;;
8279;SDS011;8335;42.646;23.380;2022-12-18T00:06:52;8.03;;;5.47;;
8279;SDS011;8335;42.646;23.380;2022-12-18T00:09:19;7.63;;;5.13;;
8279;SDS011;8335;42.646;23.380;2022-12-18T00:11:47;6.73;;;4.93;;
8279;SDS011;8335;42.646;23.380;2022-12-18T00:14:14;6.50;;;5.20;;
8279;SDS011;8335;42.646;23.380;2022-12-18T00:16:42;5.87;;;4.73;;
8279;SDS011;8335;42.646;23.380;2022-12-18T00:19:10;7.27;;;5.07;;
8279;SDS011;8335;42.646;23.380;2022-12-18T00:21:37;7.47;;;5.40;;
8279;SDS011;8335;42.646;23.380;2022-12-18T00:24:04;8.20;;;5.67;;
8279;SDS011;8335;42.646;23.380;2022-12-18T00:26:32;7.80;;;5.97;;
8279;SDS011;8335;42.646;23.380;2022-12-18T00:29:02;7.57;;;5.60;;
8279;SDS011;8335;42.646;23.380;2022-12-18T00:31:31;8.27;;;5.63;;
8279;SDS011;8335;42.646;23.380;2022-12-18T00:33:58;8.17;;;5.47;;
8279;SDS011;8335;42.646;23.380;2022-12-18T00:36:25;7.40;;;5.50;;
8279;SDS011;8335;42.646;23.380;2022-12-18T00:38:53;7.97;;;5.50;;
8279;SDS011;8335;42.646;23.380;2022-12-18T00:41:21;8.57;;;6.07;;
8279;SDS011;8335;42.646;23.380;2022-12-18T00:44:09;8.10;;;5.97;;
8279;SDS011;8335;42.646;23.380;2022-12-18T00:46:37;8.67;;;5.73;;
8279;SDS011;8335;42.646;23.380;2022-12-18T00:49:04;8.03;;;6.00;;
8279;SDS011;8335;42.646;23.380;2022-12-18T00:51:31;8.47;;;5.87;;
8279;SDS011;8335;42.646;23.380;2022-12-18T00:53:58;9.03;;;6.13;;
8279;SDS011;8335;42.646;23.380;2022-12-18T00:56:25;9.87;;;6.40;;
8279;SDS011;8335;42.646;23.380;2022-12-18T00:58:51;8.53;;;6.20;;
8279;SDS011;8335;42.646;23.380;2022-12-18T01:01:20;8.57;;;6.07;;
8279;SDS011;8335;42.646;23.380;2022-12-18T01:03:46;10.93;;;6.83;;
8279;SDS011;8335;42.646;23.380;2022-12-18T01:06:13;10.90;;;7.33;;
8279;SDS011;8335;42.646;23.380;2022-12-18T01:08:41;10.13;;;6.90;;
8279;SDS011;8335;42.646;23.380;2022-12-18T01:11:09;10.00;;;6.87;;
8279;SDS011;8335;42.646;23.380;2022-12-18T01:13:37;10.40;;;7.50;;
8279;SDS011;8335;42.646;23.380;2022-12-18T01:16:04;10.57;;;6.73;;
8279;SDS011;8335;42.646;23.380;2022-12-18T01:18:32;9.47;;;6.93;;
8279;SDS011;8335;42.646;23.380;2022-12-18T01:20:59;11.60;;;7.10;;
8279;SDS011;8335;42.646;23.380;2022-12-18T01:23:26;11.83;;;8.00;;
8279;SDS011;8335;42.646;23.380;2022-12-18T01:25:52;10.63;;;7.00;;
8279;SDS011;8335;42.646;23.380;2022-12-18T01:28:19;10.00;;;6.93;;
8279;SDS011;8335;42.646;23.380;2022-12-18T01:30:46;9.67;;;6.87;;
8279;SDS011;8335;42.646;23.380;2022-12-18T01:33:12;7.60;;;6.13;;
8279;SDS011;8335;42.646;23.380;2022-12-18T01:35:41;9.77;;;6.77;;
8279;SDS011;8335;42.646;23.380;2022-12-18T01:38:08;8.97;;;6.83;;
8279;SDS011;8335;42.646;23.380;2022-12-18T01:40:35;10.67;;;7.30;;
8279;SDS011;8335;42.646;23.380;2022-12-18T01:43:04;11.97;;;7.30;;
8279;SDS011;8335;42.646;23.380;2022-12-18T01:45:31;11.30;;;6.50;;
8279;SDS011;8335;42.646;23.380;2022-12-18T01:47:59;9.90;;;6.90;;
8279;SDS011;8335;42.646;23.380;2022-12-18T01:50:28;9.90;;;7.27;;
8279;SDS011;8335;42.646;23.380;2022-12-18T01:53:02;9.23;;;6.87;;
8279;SDS011;8335;42.646;23.380;2022-12-18T01:55:32;10.90;;;7.27;;
8279;SDS011;8335;42.646;23.380;2022-12-18T01:58:04;13.03;;;7.10;;
8279;SDS011;8335;42.646;23.380;2022-12-18T02:00:31;11.73;;;7.40;;
8279;SDS011;8335;42.646;23.380;2022-12-18T02:02:58;11.17;;;7.43;;
8279;SDS011;8335;42.646;23.380;2022-12-18T02:05:27;12.20;;;7.07;;
8279;SDS011;8335;42.646;23.380;2022-12-18T02:08:06;9.73;;;7.10;;
8279;SDS011;8335;42.646;23.380;2022-12-18T02:10:38;12.67;;;7.10;;
8279;SDS011;8335;42.646;23.380;2022-12-18T02:13:14;9.57;;;6.93;;
8279;SDS011;8335;42.646;23.380;2022-12-18T02:15:49;12.03;;;7.77;;
8279;SDS011;8335;42.646;23.380;2022-12-18T02:18:21;10.40;;;7.63;;
8279;SDS011;8335;42.646;23.380;2022-12-18T02:20:52;10.00;;;7.13;;
8279;SDS011;8335;42.646;23.380;2022-12-18T02:23:28;10.43;;;7.40;;
8279;SDS011;8335;42.646;23.380;2022-12-18T02:26:11;11.50;;;7.93;;
8279;SDS011;8335;42.646;23.380;2022-12-18T02:28:44;9.80;;;7.47;;
8279;SDS011;8335;42.646;23.380;2022-12-18T02:31:16;11.50;;;7.80;;
8279;SDS011;8335;42.646;23.380;2022-12-18T02:33:47;11.30;;;7.20;;
8279;SDS011;8335;42.646;23.380;2022-12-18T02:36:15;11.33;;;8.10;;
8279;SDS011;8335;42.646;23.380;2022-12-18T02:38:44;10.87;;;7.20;;
8279;SDS011;8335;42.646;23.380;2022-12-18T02:41:14;8.97;;;7.00;;
8279;SDS011;8335;42.646;23.380;2022-12-18T02:43:46;10.47;;;7.13;;
8279;SDS011;8335;42.646;23.380;2022-12-18T02:46:24;10.30;;;7.30;;
8279;SDS011;8335;42.646;23.380;2022-12-18T02:49:05;9.63;;;7.03;;
8279;SDS011;8335;42.646;23.380;2022-12-18T02:51:40;9.93;;;6.83;;
8279;SDS011;8335;42.646;23.380;2022-12-18T02:54:19;10.27;;;6.70;;
8279;SDS011;8335;42.646;23.380;2022-12-18T02:56:55;12.40;;;7.00;;
8279;SDS011;8335;42.646;23.380;2022-12-18T02:59:24;10.50;;;6.97;;
8279;SDS011;8335;42.646;23.380;2022-12-18T03:01:58;8.73;;;6.27;;
8279;SDS011;8335;42.646;23.380;2022-12-18T03:04:34;10.20;;;7.23;;
8279;SDS011;8335;42.646;23.380;2022-12-18T03:07:08;11.03;;;7.90;;
8279;SDS011;8335;42.646;23.380;2022-12-18T03:09:42;11.00;;;7.63;;
8279;SDS011;8335;42.646;23.380;2022-12-18T03:12:15;9.33;;;7.30;;
8279;SDS011;8335;42.646;23.380;2022-12-18T03:14:51;14.43;;;7.43;;
8279;SDS011;8335;42.646;23.380;2022-12-18T03:17:22;11.80;;;7.50;;
8279;SDS011;8335;42.646;23.380;2022-12-18T03:19:51;9.97;;;7.10;;
8279;SDS011;8335;42.646;23.380;2022-12-18T03:22:20;12.77;;;7.80;;
8279;SDS011;8335;42.646;23.380;2022-12-18T03:24:50;11.17;;;7.50;;
8279;SDS011;8335;42.646;23.380;2022-12-18T03:27:19;12.43;;;7.83;;
8279;SDS011;8335;42.646;23.380;2022-12-18T03:29:49;9.67;;;7.53;;
8279;SDS011;8335;42.646;23.380;2022-12-18T03:32:21;9.10;;;6.80;;
8279;SDS011;8335;42.646;23.380;2022-12-18T03:34:51;10.90;;;7.53;;
8279;SDS011;8335;42.646;23.380;2022-12-18T03:37:22;12.07;;;7.37;;
8279;SDS011;8335;42.646;23.380;2022-12-18T03:39:49;11.20;;;7.50;;
8279;SDS011;8335;42.646;23.380;2022-12-18T03:42:16;13.33;;;7.23;;
8279;SDS011;8335;42.646;23.380;2022-12-18T03:44:54;11.47;;;7.17;;
8279;SDS011;8335;42.646;23.380;2022-12-18T03:47:28;10.63;;;7.17;;
8279;SDS011;8335;42.646;23.380;2022-12-18T03:50:06;11.83;;;7.43;;
8279;SDS011;8335;42.646;23.380;2022-12-18T03:52:38;9.87;;;7.13;;
8279;SDS011;8335;42.646;23.380;2022-12-18T03:55:08;10.47;;;7.37;;
8279;SDS011;8335;42.646;23.380;2022-12-18T03:57:38;9.47;;;6.50;;
8279;SDS011;8335;42.646;23.380;2022-12-18T04:00:09;12.90;;;7.33;;
8279;SDS011;8335;42.646;23.380;2022-12-18T04:02:39;9.50;;;6.57;;
8279;SDS011;8335;42.646;23.380;2022-12-18T04:05:12;9.70;;;7.30;;
8279;SDS011;8335;42.646;23.380;2022-12-18T04:07:40;11.43;;;7.70;;
8279;SDS011;8335;42.646;23.380;2022-12-18T04:10:09;11.73;;;7.60;;
8279;SDS011;8335;42.646;23.380;2022-12-18T04:12:39;12.07;;;7.40;;
8279;SDS011;8335;42.646;23.380;2022-12-18T04:15:07;13.17;;;8.57;;
8279;SDS011;8335;42.646;23.380;2022-12-18T04:17:34;10.83;;;7.23;;
8279;SDS011;8335;42.646;23.380;2022-12-18T04:20:01;10.93;;;7.20;;
8279;SDS011;8335;42.646;23.380;2022-12-18T04:22:29;11.97;;;7.60;;
8279;SDS011;8335;42.646;23.380;2022-12-18T04:24:55;11.20;;;7.13;;
8279;SDS011;8335;42.646;23.380;2022-12-18T04:27:22;12.53;;;7.93;;
8279;SDS011;8335;42.646;23.380;2022-12-18T04:29:50;10.77;;;7.43;;
8279;SDS011;8335;42.646;23.380;2022-12-18T04:32:17;10.53;;;6.90;;
8279;SDS011;8335;42.646;23.380;2022-12-18T04:34:44;11.13;;;7.40;;
8279;SDS011;8335;42.646;23.380;2022-12-18T04:37:10;10.07;;;7.10;;
8279;SDS011;8335;42.646;23.380;2022-12-18T04:39:37;11.90;;;7.63;;
8279;SDS011;8335;42.646;23.380;2022-12-18T04:42:04;12.23;;;8.13;;
8279;SDS011;8335;42.646;23.380;2022-12-18T04:44:31;13.90;;;8.53;;
8279;SDS011;8335;42.646;23.380;2022-12-18T04:46:59;11.50;;;7.47;;
8279;SDS011;8335;42.646;23.380;2022-12-18T04:49:25;12.80;;;8.40;;
8279;SDS011;8335;42.646;23.380;2022-12-18T04:51:52;11.50;;;7.87;;
8279;SDS011;8335;42.646;23.380;2022-12-18T04:54:19;14.37;;;8.97;;
8279;SDS011;8335;42.646;23.380;2022-12-18T04:56:46;13.83;;;8.47;;
8279;SDS011;8335;42.646;23.380;2022-12-18T04:59:13;15.70;;;8.47;;
8279;SDS011;8335;42.646;23.380;2022-12-18T05:01:40;12.20;;;8.30;;
8279;SDS011;8335;42.646;23.380;2022-12-18T05:04:08;12.73;;;8.37;;
8279;SDS011;8335;42.646;23.380;2022-12-18T05:06:35;13.60;;;9.00;;
8279;SDS011;8335;42.646;23.380;2022-12-18T05:09:01;13.73;;;8.40;;
8279;SDS011;8335;42.646;23.380;2022-12-18T05:11:28;19.93;;;10.00;;
8279;SDS011;8335;42.646;23.380;2022-12-18T05:13:55;15.13;;;9.27;;
8279;SDS011;8335;42.646;23.380;2022-12-18T05:16:21;14.83;;;9.00;;
8279;SDS011;8335;42.646;23.380;2022-12-18T05:18:48;16.07;;;8.97;;
8279;SDS011;8335;42.646;23.380;2022-12-18T05:21:16;16.20;;;9.67;;
8279;SDS011;8335;42.646;23.380;2022-12-18T05:23:43;14.87;;;9.57;;
8279;SDS011;8335;42.646;23.380;2022-12-18T05:26:10;14.97;;;8.73;;
8279;SDS011;8335;42.646;23.380;2022-12-18T05:28:42;13.23;;;9.30;;
8279;SDS011;8335;42.646;23.380;2022-12-18T05:31:09;14.87;;;9.30;;
8279;SDS011;8335;42.646;23.380;2022-12-18T05:33:36;17.83;;;10.00;;
8279;SDS011;8335;42.646;23.380;2022-12-18T05:36:04;16.13;;;9.13;;
8279;SDS011;8335;42.646;23.380;2022-12-18T05:38:35;15.67;;;8.97;;
8279;SDS011;8335;42.646;23.380;2022-12-18T05:41:04;16.03;;;8.67;;
8279;SDS011;8335;42.646;23.380;2022-12-18T05:43:31;15.53;;;9.17;;
8279;SDS011;8335;42.646;23.380;2022-12-18T05:46:02;19.40;;;9.77;;
8279;SDS011;8335;42.646;23.380;2022-12-18T05:48:30;18.93;;;10.50;;
8279;SDS011;8335;42.646;23.380;2022-12-18T05:51:02;14.90;;;9.13;;
8279;SDS011;8335;42.646;23.380;2022-12-18T05:53:31;15.43;;;9.40;;
8279;SDS011;8335;42.646;23.380;2022-12-18T05:56:00;16.13;;;9.43;;
8279;SDS011;8335;42.646;23.380;2022-12-18T05:58:28;17.77;;;10.20;;
8279;SDS011;8335;42.646;23.380;2022-12-18T06:00:55;16.00;;;10.27;;
8279;SDS011;8335;42.646;23.380;2022-12-18T06:03:22;16.33;;;10.30;;
8279;SDS011;8335;42.646;23.380;2022-12-18T06:05:49;18.80;;;10.87;;
8279;SDS011;8335;42.646;23.380;2022-12-18T06:08:16;17.13;;;10.20;;
8279;SDS011;8335;42.646;23.380;2022-12-18T06:10:46;16.30;;;9.73;;
8279;SDS011;8335;42.646;23.380;2022-12-18T06:13:18;17.50;;;10.77;;
8279;SDS011;8335;42.646;23.380;2022-12-18T06:15:45;17.00;;;10.43;;
8279;SDS011;8335;42.646;23.380;2022-12-18T06:18:12;16.50;;;9.93;;
8279;SDS011;8335;42.646;23.380;2022-12-18T06:20:39;18.73;;;9.63;;
8279;SDS011;8335;42.646;23.380;2022-12-18T06:23:06;17.97;;;10.70;;
8279;SDS011;8335;42.646;23.380;2022-12-18T06:25:33;18.00;;;10.27;;
8279;SDS011;8335;42.646;23.380;2022-12-18T06:28:04;16.00;;;9.97;;
8279;SDS011;8335;42.646;23.380;2022-12-18T06:30:32;20.27;;;10.77;;
8279;SDS011;8335;42.646;23.380;2022-12-18T06:32:59;16.83;;;9.93;;
8279;SDS011;8335;42.646;23.380;2022-12-18T06:35:26;18.97;;;11.77;;
8279;SDS011;8335;42.646;23.380;2022-12-18T06:37:52;15.50;;;10.30;;
8279;SDS011;8335;42.646;23.380;2022-12-18T06:40:19;16.33;;;10.03;;
8279;SDS011;8335;42.646;23.380;2022-12-18T06:42:46;18.63;;;10.97;;
8279;SDS011;8335;42.646;23.380;2022-12-18T06:45:13;16.10;;;10.40;;
8279;SDS011;8335;42.646;23.380;2022-12-18T06:47:41;17.07;;;10.00;;
8279;SDS011;8335;42.646;23.380;2022-12-18T06:50:08;19.70;;;11.27;;
8279;SDS011;8335;42.646;23.380;2022-12-18T06:52:35;19.17;;;10.50;;
8279;SDS011;8335;42.646;23.380;2022-12-18T06:55:02;20.10;;;11.67;;
8279;SDS011;8335;42.646;23.380;2022-12-18T06:57:30;18.77;;;10.70;;
8279;SDS011;8335;42.646;23.380;2022-12-18T06:59:56;20.10;;;10.53;;
8279;SDS011;8335;42.646;23.380;2022-12-18T07:02:23;20.67;;;11.27;;
8279;SDS011;8335;42.646;23.380;2022-12-18T07:04:51;20.00;;;11.10;;
8279;SDS011;8335;42.646;23.380;2022-12-18T07:07:18;20.47;;;11.50;;
8279;SDS011;8335;42.646;23.380;2022-12-18T07:09:45;22.83;;;11.53;;
8279;SDS011;8335;42.646;23.380;2022-12-18T07:12:11;19.00;;;11.17;;
8279;SDS011;8335;42.646;23.380;2022-12-18T07:14:38;20.13;;;10.83;;
8279;SDS011;8335;42.646;23.380;2022-12-18T07:17:05;20.53;;;10.83;;
8279;SDS011;8335;42.646;23.380;2022-12-18T07:19:32;18.67;;;11.33;;
8279;SDS011;8335;42.646;23.380;2022-12-18T07:22:00;20.37;;;11.53;;
8279;SDS011;8335;42.646;23.380;2022-12-18T07:24:27;20.03;;;11.37;;
8279;SDS011;8335;42.646;23.380;2022-12-18T07:26:54;19.47;;;10.77;;
8279;SDS011;8335;42.646;23.380;2022-12-18T07:29:21;19.03;;;11.27;;
8279;SDS011;8335;42.646;23.380;2022-12-18T07:31:48;17.17;;;10.87;;
8279;SDS011;8335;42.646;23.380;2022-12-18T07:34:14;17.57;;;10.63;;
8279;SDS011;8335;42.646;23.380;2022-12-18T07:36:41;20.00;;;11.83;;
8279;SDS011;8335;42.646;23.380;2022-12-18T07:39:10;20.17;;;11.90;;
8279;SDS011;8335;42.646;23.380;2022-12-18T07:41:37;20.40;;;11.03;;
8279;SDS011;8335;42.646;23.380;2022-12-18T07:44:08;24.03;;;12.77;;
8279;SDS011;8335;42.646;23.380;2022-12-18T07:46:35;19.27;;;11.77;;
8279;SDS011;8335;42.646;23.380;2022-12-18T07:49:02;22.37;;;12.00;;
8279;SDS011;8335;42.646;23.380;2022-12-18T07:51:29;19.70;;;11.53;;
8279;SDS011;8335;42.646;23.380;2022-12-18T07:53:56;19.90;;;11.50;;
8279;SDS011;8335;42.646;23.380;2022-12-18T07:56:24;20.33;;;12.10;;
8279;SDS011;8335;42.646;23.380;2022-12-18T07:58:51;20.17;;;12.13;;
8279;SDS011;8335;42.646;23.380;2022-12-18T08:01:17;22.87;;;11.90;;
8279;SDS011;8335;42.646;23.380;2022-12-18T08:03:44;20.77;;;11.43;;
8279;SDS011;8335;42.646;23.380;2022-12-18T08:06:11;20.07;;;11.87;;
8279;SDS011;8335;42.646;23.380;2022-12-18T08:08:38;20.80;;;12.63;;
8279;SDS011;8335;42.646;23.380;2022-12-18T08:11:06;26.30;;;12.20;;
8279;SDS011;8335;42.646;23.380;2022-12-18T08:13:34;21.27;;;11.83;;
8279;SDS011;8335;42.646;23.380;2022-12-18T08:16:01;23.43;;;13.07;;
8279;SDS011;8335;42.646;23.380;2022-12-18T08:18:31;21.03;;;12.17;;
8279;SDS011;8335;42.646;23.380;2022-12-18T08:21:06;23.93;;;13.10;;
8279;SDS011;8335;42.646;23.380;2022-12-18T08:23:33;25.63;;;14.10;;
8279;SDS011;8335;42.646;23.380;2022-12-18T08:26:00;23.20;;;13.17;;
8279;SDS011;8335;42.646;23.380;2022-12-18T08:28:27;22.93;;;12.97;;
8279;SDS011;8335;42.646;23.380;2022-12-18T08:30:55;27.03;;;13.63;;
8279;SDS011;8335;42.646;23.380;2022-12-18T08:33:22;26.20;;;14.00;;
8279;SDS011;8335;42.646;23.380;2022-12-18T08:35:49;23.20;;;13.37;;
8279;SDS011;8335;42.646;23.380;2022-12-18T08:38:18;24.93;;;14.40;;
8279;SDS011;8335;42.646;23.380;2022-12-18T08:40:45;23.60;;;13.47;;
8279;SDS011;8335;42.646;23.380;2022-12-18T08:43:12;26.30;;;14.33;;
8279;SDS011;8335;42.646;23.380;2022-12-18T08:45:57;22.33;;;13.57;;
8279;SDS011;8335;42.646;23.380;2022-12-18T08:48:24;24.50;;;13.43;;
8279;SDS011;8335;42.646;23.380;2022-12-18T08:50:54;24.03;;;13.57;;
8279;SDS011;8335;42.646;23.380;2022-12-18T08:53:21;21.97;;;12.60;;
8279;SDS011;8335;42.646;23.380;2022-12-18T08:55:48;22.60;;;12.83;;
8279;SDS011;8335;42.646;23.380;2022-12-18T08:58:15;25.97;;;13.30;;
8279;SDS011;8335;42.646;23.380;2022-12-18T09:00:41;22.33;;;12.40;;
8279;SDS011;8335;42.646;23.380;2022-12-18T09:03:12;26.63;;;13.77;;
8279;SDS011;8335;42.646;23.380;2022-12-18T09:05:39;22.13;;;12.50;;
8279;SDS011;8335;42.646;23.380;2022-12-18T09:08:06;21.67;;;12.17;;
8279;SDS011;8335;42.646;23.380;2022-12-18T09:10:32;23.00;;;12.40;;
8279;SDS011;8335;42.646;23.380;2022-12-18T09:13:00;28.27;;;14.73;;
8279;SDS011;8335;42.646;23.380;2022-12-18T09:15:26;23.30;;;13.33;;
8279;SDS011;8335;42.646;23.380;2022-12-18T09:17:53;21.40;;;11.97;;
8279;SDS011;8335;42.646;23.380;2022-12-18T09:20:21;25.57;;;13.83;;
8279;SDS011;8335;42.646;23.380;2022-12-18T09:22:48;25.93;;;13.80;;
8279;SDS011;8335;42.646;23.380;2022-12-18T09:25:15;23.83;;;13.77;;
8279;SDS011;8335;42.646;23.380;2022-12-18T09:27:41;26.40;;;13.67;;
8279;SDS011;8335;42.646;23.380;2022-12-18T09:30:09;25.10;;;13.80;;
8279;SDS011;8335;42.646;23.380;2022-12-18T09:32:36;24.50;;;14.10;;
8279;SDS011;8335;42.646;23.380;2022-12-18T09:35:03;26.90;;;15.20;;
8279;SDS011;8335;42.646;23.380;2022-12-18T09:37:32;21.87;;;12.40;;
8279;SDS011;8335;42.646;23.380;2022-12-18T09:39:58;22.43;;;12.80;;
8279;SDS011;8335;42.646;23.380;2022-12-18T09:42:25;24.37;;;14.07;;
8279;SDS011;8335;42.646;23.380;2022-12-18T09:44:53;21.67;;;11.80;;
8279;SDS011;8335;42.646;23.380;2022-12-18T09:47:21;23.07;;;11.50;;
8279;SDS011;8335;42.646;23.380;2022-12-18T09:49:52;28.87;;;13.50;;
8279;SDS011;8335;42.646;23.380;2022-12-18T09:52:23;23.83;;;11.83;;
8279;SDS011;8335;42.646;23.380;2022-12-18T09:54:56;23.70;;;13.00;;
8279;SDS011;8335;42.646;23.380;2022-12-18T09:57:28;20.70;;;12.07;;
8279;SDS011;8335;42.646;23.380;2022-12-18T10:00:04;23.60;;;12.83;;
8279;SDS011;8335;42.646;23.380;2022-12-18T10:02:37;21.53;;;11.23;;
8279;SDS011;8335;42.646;23.380;2022-12-18T10:05:05;19.70;;;11.30;;
8279;SDS011;8335;42.646;23.380;2022-12-18T10:07:37;22.57;;;12.10;;
8279;SDS011;8335;42.646;23.380;2022-12-18T10:10:17;20.67;;;12.37;;
8279;SDS011;8335;42.646;23.380;2022-12-18T10:12:54;22.53;;;11.67;;
8279;SDS011;8335;42.646;23.380;2022-12-18T10:15:30;19.03;;;11.73;;
8279;SDS011;8335;42.646;23.380;2022-12-18T10:18:04;21.50;;;12.47;;
8279;SDS011;8335;42.646;23.380;2022-12-18T10:20:45;21.30;;;11.70;;
8279;SDS011;8335;42.646;23.380;2022-12-18T10:23:16;23.90;;;12.33;;
8279;SDS011;8335;42.646;23.380;2022-12-18T10:25:55;20.77;;;12.17;;
8279;SDS011;8335;42.646;23.380;2022-12-18T10:28:27;22.47;;;12.20;;
8279;SDS011;8335;42.646;23.380;2022-12-18T10:30:56;23.73;;;12.73;;
8279;SDS011;8335;42.646;23.380;2022-12-18T10:33:27;24.97;;;13.70;;
8279;SDS011;8335;42.646;23.380;2022-12-18T10:35:55;25.30;;;13.00;;
8279;SDS011;8335;42.646;23.380;2022-12-18T10:38:24;21.83;;;12.40;;
8279;SDS011;8335;42.646;23.380;2022-12-18T10:40:54;23.63;;;12.00;;
8279;SDS011;8335;42.646;23.380;2022-12-18T10:43:23;23.23;;;12.40;;
8279;SDS011;8335;42.646;23.380;2022-12-18T10:45:59;25.43;;;13.03;;
8279;SDS011;8335;42.646;23.380;2022-12-18T10:48:35;23.67;;;13.47;;
8279;SDS011;8335;42.646;23.380;2022-12-18T10:51:06;23.53;;;12.73;;
8279;SDS011;8335;42.646;23.380;2022-12-18T10:53:35;25.57;;;12.53;;
8279;SDS011;8335;42.646;23.380;2022-12-18T10:56:04;23.83;;;12.27;;
8279;SDS011;8335;42.646;23.380;2022-12-18T10:58:33;22.53;;;12.07;;
8279;SDS011;8335;42.646;23.380;2022-12-18T11:01:02;26.83;;;13.60;;
8279;SDS011;8335;42.646;23.380;2022-12-18T11:03:32;23.73;;;13.37;;
8279;SDS011;8335;42.646;23.380;2022-12-18T11:06:02;26.40;;;13.20;;
8279;SDS011;8335;42.646;23.380;2022-12-18T11:08:30;23.10;;;13.57;;
8279;SDS011;8335;42.646;23.380;2022-12-18T11:10:57;25.90;;;14.10;;
8279;SDS011;8335;42.646;23.380;2022-12-18T11:13:26;24.97;;;12.80;;
8279;SDS011;8335;42.646;23.380;2022-12-18T11:15:55;26.60;;;13.70;;
8279;SDS011;8335;42.646;23.380;2022-12-18T11:18:24;25.07;;;13.50;;
8279;SDS011;8335;42.646;23.380;2022-12-18T11:20:54;23.87;;;13.10;;
8279;SDS011;8335;42.646;23.380;2022-12-18T11:23:23;22.20;;;12.27;;
8279;SDS011;8335;42.646;23.380;2022-12-18T11:25:53;20.50;;;12.03;;
8279;SDS011;8335;42.646;23.380;2022-12-18T11:31:19;20.67;;;11.30;;
8279;SDS011;8335;42.646;23.380;2022-12-18T11:33:50;21.10;;;11.80;;
8279;SDS011;8335;42.646;23.380;2022-12-18T11:36:24;22.20;;;11.37;;
8279;SDS011;8335;42.646;23.380;2022-12-18T11:38:54;21.10;;;12.30;;
8279;SDS011;8335;42.646;23.380;2022-12-18T11:41:25;22.70;;;11.30;;
8279;SDS011;8335;42.646;23.380;2022-12-18T11:44:11;22.27;;;11.40;;
8279;SDS011;8335;42.646;23.380;2022-12-18T11:46:43;22.97;;;12.70;;
8279;SDS011;8335;42.646;23.380;2022-12-18T11:49:17;22.87;;;13.07;;
8279;SDS011;8335;42.646;23.380;2022-12-18T11:51:50;23.20;;;12.83;;
8279;SDS011;8335;42.646;23.380;2022-12-18T11:54:21;29.70;;;12.83;;
8279;SDS011;8335;42.646;23.380;2022-12-18T11:56:49;22.10;;;12.43;;
8279;SDS011;8335;42.646;23.380;2022-12-18T11:59:23;24.03;;;12.90;;
8279;SDS011;8335;42.646;23.380;2022-12-18T12:01:59;23.17;;;11.83;;
8279;SDS011;8335;42.646;23.380;2022-12-18T12:04:42;24.27;;;11.57;;
8279;SDS011;8335;42.646;23.380;2022-12-18T12:07:18;21.50;;;10.53;;
8279;SDS011;8335;42.646;23.380;2022-12-18T12:09:58;22.33;;;10.97;;
8279;SDS011;8335;42.646;23.380;2022-12-18T12:12:38;17.03;;;10.17;;
8279;SDS011;8335;42.646;23.380;2022-12-18T12:15:28;20.27;;;11.47;;
8279;SDS011;8335;42.646;23.380;2022-12-18T12:18:05;22.13;;;11.90;;
8279;SDS011;8335;42.646;23.380;2022-12-18T12:20:42;19.83;;;11.40;;
8279;SDS011;8335;42.646;23.380;2022-12-18T12:23:19;21.13;;;12.20;;
8279;SDS011;8335;42.646;23.380;2022-12-18T12:25:54;20.67;;;10.97;;
8279;SDS011;8335;42.646;23.380;2022-12-18T12:28:31;20.07;;;11.63;;
8279;SDS011;8335;42.646;23.380;2022-12-18T12:31:16;26.53;;;15.27;;
8279;SDS011;8335;42.646;23.380;2022-12-18T12:33:51;25.27;;;13.50;;
8279;SDS011;8335;42.646;23.380;2022-12-18T12:36:29;26.47;;;13.50;;
8279;SDS011;8335;42.646;23.380;2022-12-18T12:39:05;23.40;;;12.63;;
8279;SDS011;8335;42.646;23.380;2022-12-18T12:41:34;21.77;;;12.63;;
8279;SDS011;8335;42.646;23.380;2022-12-18T12:44:20;25.83;;;13.93;;
8279;SDS011;8335;42.646;23.380;2022-12-18T12:46:51;23.33;;;13.50;;
8279;SDS011;8335;42.646;23.380;2022-12-18T12:49:21;22.00;;;11.70;;
8279;SDS011;8335;42.646;23.380;2022-12-18T12:51:53;26.87;;;13.40;;
8279;SDS011;8335;42.646;23.380;2022-12-18T12:54:27;25.13;;;12.83;;
8279;SDS011;8335;42.646;23.380;2022-12-18T12:56:56;23.63;;;12.50;;
8279;SDS011;8335;42.646;23.380;2022-12-18T12:59:26;21.10;;;11.57;;
8279;SDS011;8335;42.646;23.380;2022-12-18T13:02:04;27.10;;;12.37;;
8279;SDS011;8335;42.646;23.380;2022-12-18T13:04:42;26.10;;;13.60;;
8279;SDS011;8335;42.646;23.380;2022-12-18T13:07:15;22.63;;;13.27;;
8279;SDS011;8335;42.646;23.380;2022-12-18T13:13:02;25.07;;;13.83;;
8279;SDS011;8335;42.646;23.380;2022-12-18T13:15:33;28.97;;;13.63;;
8279;SDS011;8335;42.646;23.380;2022-12-18T13:20:49;23.70;;;13.93;;
8279;SDS011;8335;42.646;23.380;2022-12-18T13:23:27;28.03;;;13.73;;
8279;SDS011;8335;42.646;23.380;2022-12-18T13:25:57;23.20;;;13.43;;
8279;SDS011;8335;42.646;23.380;2022-12-18T13:34:18;27.87;;;14.33;;
8279;SDS011;8335;42.646;23.380;2022-12-18T13:36:46;24.73;;;13.07;;
8279;SDS011;8335;42.646;23.380;2022-12-18T13:39:23;27.53;;;14.77;;
8279;SDS011;8335;42.646;23.380;2022-12-18T13:45:38;21.13;;;13.20;;
8279;SDS011;8335;42.646;23.380;2022-12-18T13:48:15;21.77;;;13.07;;
8279;SDS011;8335;42.646;23.380;2022-12-18T13:50:49;22.37;;;12.77;;
8279;SDS011;8335;42.646;23.380;2022-12-18T13:53:20;23.33;;;11.83;;
8279;SDS011;8335;42.646;23.380;2022-12-18T13:55:51;21.27;;;13.10;;
8279;SDS011;8335;42.646;23.380;2022-12-18T13:58:18;23.77;;;13.37;;
8279;SDS011;8335;42.646;23.380;2022-12-18T14:00:44;22.67;;;12.90;;
8279;SDS011;8335;42.646;23.380;2022-12-18T14:03:16;25.80;;;13.77;;
8279;SDS011;8335;42.646;23.380;2022-12-18T14:05:45;29.77;;;14.70;;
8279;SDS011;8335;42.646;23.380;2022-12-18T14:08:14;25.57;;;13.93;;
8279;SDS011;8335;42.646;23.380;2022-12-18T14:10:43;25.30;;;13.80;;
8279;SDS011;8335;42.646;23.380;2022-12-18T14:13:14;25.07;;;13.67;;
8279;SDS011;8335;42.646;23.380;2022-12-18T14:15:45;25.77;;;13.37;;
8279;SDS011;8335;42.646;23.380;2022-12-18T14:18:17;23.00;;;13.30;;
8279;SDS011;8335;42.646;23.380;2022-12-18T14:20:48;23.13;;;12.93;;
8279;SDS011;8335;42.646;23.380;2022-12-18T14:23:30;23.73;;;12.57;;
8279;SDS011;8335;42.646;23.380;2022-12-18T14:25:59;23.43;;;13.27;;
8279;SDS011;8335;42.646;23.380;2022-12-18T14:28:28;24.57;;;12.47;;
8279;SDS011;8335;42.646;23.380;2022-12-18T14:30:55;21.37;;;12.27;;
8279;SDS011;8335;42.646;23.380;2022-12-18T14:33:22;23.27;;;12.50;;
8279;SDS011;8335;42.646;23.380;2022-12-18T14:35:54;23.27;;;12.13;;
8279;SDS011;8335;42.646;23.380;2022-12-18T14:38:27;20.47;;;11.27;;
8279;SDS011;8335;42.646;23.380;2022-12-18T14:40:57;22.83;;;11.90;;
8279;SDS011;8335;42.646;23.380;2022-12-18T14:43:26;24.80;;;11.77;;
8279;SDS011;8335;42.646;23.380;2022-12-18T14:45:53;22.33;;;11.37;;
8279;SDS011;8335;42.646;23.380;2022-12-18T14:48:21;23.37;;;12.10;;
8279;SDS011;8335;42.646;23.380;2022-12-18T14:51:00;23.30;;;12.60;;
8279;SDS011;8335;42.646;23.380;2022-12-18T14:53:32;20.50;;;11.53;;
8279;SDS011;8335;42.646;23.380;2022-12-18T14:56:02;23.23;;;12.10;;
8279;SDS011;8335;42.646;23.380;2022-12-18T14:58:30;20.87;;;11.77;;
8279;SDS011;8335;42.646;23.380;2022-12-18T15:00:56;24.57;;;12.50;;
8279;SDS011;8335;42.646;23.380;2022-12-18T15:03:23;20.70;;;11.30;;
8279;SDS011;8335;42.646;23.380;2022-12-18T15:05:51;22.90;;;11.83;;
8279;SDS011;8335;42.646;23.380;2022-12-18T15:08:28;23.17;;;11.63;;
8279;SDS011;8335;42.646;23.380;2022-12-18T15:11:01;24.17;;;12.63;;
8279;SDS011;8335;42.646;23.380;2022-12-18T15:13:29;20.67;;;11.03;;
8279;SDS011;8335;42.646;23.380;2022-12-18T15:15:55;20.93;;;11.17;;